sensor_id;sensor_type;location;lat;lon;timestamp;pressure;altitude;pressure_sealevel;temperature;humidity
71666;BME280;59503;53.486;10.196;2023-02-15T00:01:54;103114.97;;;3.67;100.00
71666;BME280;59503;53.486;10.196;2023-02-15T00:04:21;103117.97;;;3.71;100.00
71666;BME280;59503;53.486;10.196;2023-02-15T00:06:48;103123.06;;;3.72;100.00
71666;BME280;59503;53.486;10.196;2023-02-15T00:09:13;103117.69;;;3.72;100.00
71666;BME280;59503;53.486;10.196;2023-02-15T00:11:39;103119.88;;;3.75;100.00
71666;BME280;59503;53.486;10.196;2023-02-15T00:16:38;103112.88;;;3.74;100.00
71666;BME280;59503;53.486;10.196;2023-02-15T00:19:04;103114.53;;;3.80;100.00
71666;BME280;59503;53.486;10.196;2023-02-15T00:21:31;103112.56;;;3.71;100.00
71666;BME280;59503;53.486;10.196;2023-02-15T00:23:58;103101.03;;;3.75;100.00
71666;BME280;59503;53.486;10.196;2023-02-15T00:26:24;103101.28;;;3.74;100.00
71666;BME280;59503;53.486;10.196;2023-02-15T00:28:50;103106.41;;;3.75;100.00
71666;BME280;59503;53.486;10.196;2023-02-15T00:31:16;103106.13;;;3.72;100.00
71666;BME280;59503;53.486;10.196;2023-02-15T00:33:41;103096.19;;;3.72;100.00
71666;BME280;59503;53.486;10.196;2023-02-15T00:36:09;103095.63;;;3.70;100.00
71666;BME280;59503;53.486;10.196;2023-02-15T00:38:35;103100.75;;;3.72;100.00
71666;BME280;59503;53.486;10.196;2023-02-15T00:41:02;103099.44;;;3.74;100.00
71666;BME280;59503;53.486;10.196;2023-02-15T00:43:30;103093.50;;;3.72;100.00
71666;BME280;59503;53.486;10.196;2023-02-15T00:45:55;103090.78;;;3.67;100.00
71666;BME280;59503;53.486;10.196;2023-02-15T00:48:21;103092.06;;;3.65;100.00
71666;BME280;59503;53.486;10.196;2023-02-15T00:50:49;103090.44;;;3.59;100.00
71666;BME280;59503;53.486;10.196;2023-02-15T00:53:15;103082.06;;;3.55;100.00
71666;BME280;59503;53.486;10.196;2023-02-15T00:55:41;103088.78;;;3.58;100.00
71666;BME280;59503;53.486;10.196;2023-02-15T00:58:08;103085.31;;;3.57;100.00
71666;BME280;59503;53.486;10.196;2023-02-15T01:00:34;103069.44;;;3.56;100.00
71666;BME280;59503;53.486;10.196;2023-02-15T01:03:00;103071.88;;;3.57;100.00
71666;BME280;59503;53.486;10.196;2023-02-15T01:05:25;103072.94;;;3.61;100.00
71666;BME280;59503;53.486;10.196;2023-02-15T01:07:51;103079.16;;;3.62;100.00
71666;BME280;59503;53.486;10.196;2023-02-15T01:10:16;103070.22;;;3.56;100.00
71666;BME280;59503;53.486;10.196;2023-02-15T01:12:41;103064.28;;;3.49;100.00
71666;BME280;59503;53.486;10.196;2023-02-15T01:15:07;103065.59;;;3.47;100.00
71666;BME280;59503;53.486;10.196;2023-02-15T01:17:33;103072.09;;;3.51;100.00
71666;BME280;59503;53.486;10.196;2023-02-15T01:19:58;103069.16;;;3.52;100.00
71666;BME280;59503;53.486;10.196;2023-02-15T01:22:24;103064.56;;;3.53;100.00
71666;BME280;59503;53.486;10.196;2023-02-15T01:24:50;103065.06;;;3.50;100.00
71666;BME280;59503;53.486;10.196;2023-02-15T01:27:15;103053.97;;;3.41;100.00
71666;BME280;59503;53.486;10.196;2023-02-15T01:29:41;103053.97;;;3.41;100.00
71666;BME280;59503;53.486;10.196;2023-02-15T01:32:06;103058.88;;;3.44;100.00
71666;BME280;59503;53.486;10.196;2023-02-15T01:34:31;103048.03;;;3.39;100.00
71666;BME280;59503;53.486;10.196;2023-02-15T01:36:57;103048.31;;;3.38;100.00
71666;BME280;59503;53.486;10.196;2023-02-15T01:39:22;103046.97;;;3.35;100.00
71666;BME280;59503;53.486;10.196;2023-02-15T01:41:48;103043.19;;;3.36;100.00
71666;BME280;59503;53.486;10.196;2023-02-15T01:47:16;103044.75;;;3.27;100.00
71666;BME280;59503;53.486;10.196;2023-02-15T01:49:44;103040.97;;;3.28;100.00
71666;BME280;59503;53.486;10.196;2023-02-15T01:52:14;103038.03;;;3.30;100.00
71666;BME280;59503;53.486;10.196;2023-02-15T01:54:44;103040.97;;;3.28;100.00
71666;BME280;59503;53.486;10.196;2023-02-15T01:57:15;103027.53;;;3.28;100.00
71666;BME280;59503;53.486;10.196;2023-02-15T01:59:46;103032.38;;;3.26;100.00
71666;BME280;59503;53.486;10.196;2023-02-15T02:02:14;103029.16;;;3.29;100.00
71666;BME280;59503;53.486;10.196;2023-02-15T02:04:47;103031.84;;;3.29;100.00
71666;BME280;59503;53.486;10.196;2023-02-15T02:07:15;103033.69;;;3.24;100.00
71666;BME280;59503;53.486;10.196;2023-02-15T02:09:41;103021.84;;;3.20;100.00
71666;BME280;59503;53.486;10.196;2023-02-15T02:12:08;103024.78;;;3.18;100.00
71666;BME280;59503;53.486;10.196;2023-02-15T02:14:34;103020.75;;;3.16;100.00
71666;BME280;59503;53.486;10.196;2023-02-15T02:31:47;102999.44;;;3.09;100.00
71666;BME280;59503;53.486;10.196;2023-02-15T02:34:27;103002.06;;;3.04;100.00
71666;BME280;59503;53.486;10.196;2023-02-15T02:37:19;103007.44;;;3.04;100.00
71666;BME280;59503;53.486;10.196;2023-02-15T02:39:59;102999.16;;;3.06;100.00
71666;BME280;59503;53.486;10.196;2023-02-15T02:42:45;102981.94;;;3.02;100.00
71666;BME280;59503;53.486;10.196;2023-02-15T02:45:32;102981.94;;;3.02;100.00
71666;BME280;59503;53.486;10.196;2023-02-15T02:48:08;103003.81;;;-96.38;100.00
71666;BME280;59503;53.486;10.196;2023-02-15T02:50:34;70796.91;;;-142.58;100.00
71666;BME280;59503;53.486;10.196;2023-02-15T02:53:00;102981.94;;;3.02;100.00
71666;BME280;59503;53.486;10.196;2023-02-15T02:55:33;102975.50;;;3.08;100.00
71666;BME280;59503;53.486;10.196;2023-02-15T03:00:42;102980.09;;;3.07;100.00
71666;BME280;59503;53.486;10.196;2023-02-15T03:03:13;102980.09;;;3.07;100.00
71666;BME280;59503;53.486;10.196;2023-02-15T03:05:44;70796.91;;;-142.58;100.00
71666;BME280;59503;53.486;10.196;2023-02-15T03:08:10;70796.91;;;-142.58;100.00
71666;BME280;59503;53.486;10.196;2023-02-15T03:10:39;70796.91;;;-142.58;100.00
71666;BME280;59503;53.486;10.196;2023-02-15T03:13:05;70796.91;;;-142.58;100.00
71666;BME280;59503;53.486;10.196;2023-02-15T03:15:38;70796.91;;;-142.58;100.00
71666;BME280;59503;53.486;10.196;2023-02-15T03:19:28;70796.91;;;-142.58;100.00
71666;BME280;59503;53.486;10.196;2023-02-15T03:22:59;70796.91;;;-142.58;100.00
71666;BME280;59503;53.486;10.196;2023-02-15T03:26:28;70796.91;;;-142.58;100.00
71666;BME280;59503;53.486;10.196;2023-02-15T03:29:25;70796.91;;;-142.58;100.00
71666;BME280;59503;53.486;10.196;2023-02-15T03:32:04;70796.91;;;-142.58;100.00
71666;BME280;59503;53.486;10.196;2023-02-15T03:34:32;70796.91;;;-142.58;100.00
71666;BME280;59503;53.486;10.196;2023-02-15T03:37:32;70796.91;;;-142.58;100.00
71666;BME280;59503;53.486;10.196;2023-02-15T03:40:29;70796.91;;;-142.58;100.00
71666;BME280;59503;53.486;10.196;2023-02-15T03:44:17;70796.91;;;-142.58;100.00
71666;BME280;59503;53.486;10.196;2023-02-15T03:47:49;70796.91;;;-142.58;100.00
71666;BME280;59503;53.486;10.196;2023-02-15T03:50:42;70796.91;;;-142.58;100.00
71666;BME280;59503;53.486;10.196;2023-02-15T03:53:33;70796.91;;;-142.58;100.00
71666;BME280;59503;53.486;10.196;2023-02-15T03:55:59;70796.91;;;-142.58;100.00
71666;BME280;59503;53.486;10.196;2023-02-15T03:59:07;70796.91;;;-142.58;100.00
71666;BME280;59503;53.486;10.196;2023-02-15T04:06:30;70796.91;;;-142.58;100.00
71666;BME280;59503;53.486;10.196;2023-02-15T04:09:55;70796.91;;;-142.58;100.00
71666;BME280;59503;53.486;10.196;2023-02-15T04:13:37;70796.91;;;-142.58;100.00
71666;BME280;59503;53.486;10.196;2023-02-15T04:17:04;70796.91;;;-142.58;100.00
71666;BME280;59503;53.486;10.196;2023-02-15T04:20:28;70796.91;;;-142.58;100.00
71666;BME280;59503;53.486;10.196;2023-02-15T04:24:11;70796.91;;;-142.58;100.00
71666;BME280;59503;53.486;10.196;2023-02-15T04:27:55;70796.91;;;-142.58;100.00
71666;BME280;59503;53.486;10.196;2023-02-15T04:31:20;70796.91;;;-142.58;100.00
71666;BME280;59503;53.486;10.196;2023-02-15T04:34:45;70796.91;;;-142.58;100.00
71666;BME280;59503;53.486;10.196;2023-02-15T04:38:09;70796.91;;;-142.58;100.00
71666;BME280;59503;53.486;10.196;2023-02-15T04:41:34;70796.91;;;-142.58;100.00
71666;BME280;59503;53.486;10.196;2023-02-15T04:44:58;70796.91;;;-142.58;100.00
71666;BME280;59503;53.486;10.196;2023-02-15T04:48:22;70796.91;;;-142.58;100.00
71666;BME280;59503;53.486;10.196;2023-02-15T04:51:46;70796.91;;;-142.58;100.00
71666;BME280;59503;53.486;10.196;2023-02-15T04:55:10;70796.91;;;-142.58;100.00
71666;BME280;59503;53.486;10.196;2023-02-15T04:58:34;70796.91;;;-142.58;100.00
71666;BME280;59503;53.486;10.196;2023-02-15T05:02:01;70796.91;;;-142.58;100.00
71666;BME280;59503;53.486;10.196;2023-02-15T05:04:32;102980.09;;;3.07;100.00
71666;BME280;59503;53.486;10.196;2023-02-15T05:07:02;89433.91;;;3.07;100.00
71666;BME280;59503;53.486;10.196;2023-02-15T05:10:26;70796.91;;;-142.58;100.00
71666;BME280;59503;53.486;10.196;2023-02-15T05:13:29;70796.91;;;3.07;100.00
71666;BME280;59503;53.486;10.196;2023-02-15T05:16:53;70796.91;;;-142.58;100.00
71666;BME280;59503;53.486;10.196;2023-02-15T05:20:18;70796.91;;;-142.58;100.00
71666;BME280;59503;53.486;10.196;2023-02-15T05:23:42;70796.91;;;-142.58;100.00
71666;BME280;59503;53.486;10.196;2023-02-15T05:27:10;70796.91;;;-142.58;100.00
71666;BME280;59503;53.486;10.196;2023-02-15T05:34:20;70796.91;;;-142.58;100.00
71666;BME280;59503;53.486;10.196;2023-02-15T05:37:44;70796.91;;;-142.58;100.00
71666;BME280;59503;53.486;10.196;2023-02-15T05:41:09;70796.91;;;-142.58;100.00
71666;BME280;59503;53.486;10.196;2023-02-15T05:44:33;70796.91;;;-142.58;100.00
71666;BME280;59503;53.486;10.196;2023-02-15T05:47:58;70796.91;;;-142.58;100.00
71666;BME280;59503;53.486;10.196;2023-02-15T05:51:22;70796.91;;;-142.58;100.00
71666;BME280;59503;53.486;10.196;2023-02-15T05:54:24;70796.91;;;-142.58;100.00
71666;BME280;59503;53.486;10.196;2023-02-15T05:57:48;70796.91;;;-142.58;100.00
71666;BME280;59503;53.486;10.196;2023-02-15T06:01:16;70796.91;;;-142.58;100.00
71666;BME280;59503;53.486;10.196;2023-02-15T06:04:41;70796.91;;;-142.58;100.00
71666;BME280;59503;53.486;10.196;2023-02-15T06:08:05;70796.91;;;-142.58;100.00
71666;BME280;59503;53.486;10.196;2023-02-15T06:11:29;70796.91;;;-142.58;100.00
71666;BME280;59503;53.486;10.196;2023-02-15T06:14:53;70796.91;;;-142.58;100.00
71666;BME280;59503;53.486;10.196;2023-02-15T06:18:17;70796.91;;;-142.58;100.00
71666;BME280;59503;53.486;10.196;2023-02-15T06:21:44;70796.91;;;-142.58;100.00
71666;BME280;59503;53.486;10.196;2023-02-15T06:25:08;70796.91;;;-142.58;100.00
71666;BME280;59503;53.486;10.196;2023-02-15T06:28:34;70796.91;;;-142.58;100.00
71666;BME280;59503;53.486;10.196;2023-02-15T06:31:58;70796.91;;;-142.58;100.00
71666;BME280;59503;53.486;10.196;2023-02-15T06:35:22;70796.91;;;-142.58;100.00
71666;BME280;59503;53.486;10.196;2023-02-15T06:38:46;70796.91;;;-142.58;100.00
71666;BME280;59503;53.486;10.196;2023-02-15T06:42:10;70796.91;;;-142.58;100.00
71666;BME280;59503;53.486;10.196;2023-02-15T06:45:34;70796.91;;;-142.58;100.00
71666;BME280;59503;53.486;10.196;2023-02-15T06:48:58;70796.91;;;-142.58;100.00
71666;BME280;59503;53.486;10.196;2023-02-15T06:52:22;70796.91;;;-142.58;100.00
71666;BME280;59503;53.486;10.196;2023-02-15T06:55:45;70796.91;;;-142.58;100.00
71666;BME280;59503;53.486;10.196;2023-02-15T06:59:09;70796.91;;;-142.58;100.00
71666;BME280;59503;53.486;10.196;2023-02-15T07:02:33;70796.91;;;-142.58;100.00
71666;BME280;59503;53.486;10.196;2023-02-15T07:05:58;70796.91;;;-142.58;100.00
71666;BME280;59503;53.486;10.196;2023-02-15T07:09:23;70796.91;;;-142.58;100.00
71666;BME280;59503;53.486;10.196;2023-02-15T07:12:19;70796.91;;;-142.58;100.00
71666;BME280;59503;53.486;10.196;2023-02-15T07:15:09;70796.91;;;-142.58;100.00
71666;BME280;59503;53.486;10.196;2023-02-15T07:18:33;70796.91;;;-142.58;100.00
71666;BME280;59503;53.486;10.196;2023-02-15T07:21:50;70796.91;;;-142.58;100.00
71666;BME280;59503;53.486;10.196;2023-02-15T07:24:31;70796.91;;;-142.58;100.00
71666;BME280;59503;53.486;10.196;2023-02-15T07:37:12;102829.97;;;0.98;100.00
71666;BME280;59503;53.486;10.196;2023-02-15T07:39:37;102835.66;;;1.01;100.00
71666;BME280;59503;53.486;10.196;2023-02-15T07:42:03;102835.22;;;1.09;100.00
71666;BME280;59503;53.486;10.196;2023-02-15T07:44:28;102834.50;;;1.14;100.00
71666;BME280;59503;53.486;10.196;2023-02-15T07:46:54;102831.66;;;1.20;100.00
71666;BME280;59503;53.486;10.196;2023-02-15T07:49:19;102833.56;;;1.25;100.00
71666;BME280;59503;53.486;10.196;2023-02-15T07:51:44;102829.09;;;1.31;100.00
71666;BME280;59503;53.486;10.196;2023-02-15T07:54:10;102828.66;;;1.17;100.00
71666;BME280;59503;53.486;10.196;2023-02-15T07:56:36;102831.22;;;1.28;100.00
71666;BME280;59503;53.486;10.196;2023-02-15T07:59:01;102812.47;;;1.28;100.00
71666;BME280;59503;53.486;10.196;2023-02-15T08:01:33;102814.00;;;1.24;100.00
71666;BME280;59503;53.486;10.196;2023-02-15T08:04:00;102816.69;;;1.24;100.00
71666;BME280;59503;53.486;10.196;2023-02-15T08:06:27;102805.44;;;1.22;100.00
71666;BME280;59503;53.486;10.196;2023-02-15T08:08:54;102816.44;;;1.26;100.00
71666;BME280;59503;53.486;10.196;2023-02-15T08:11:27;102811.75;;;1.16;100.00
71666;BME280;59503;53.486;10.196;2023-02-15T08:14:19;102810.03;;;1.05;100.00
71666;BME280;59503;53.486;10.196;2023-02-15T08:19:24;102813.72;;;1.04;100.00
71666;BME280;59503;53.486;10.196;2023-02-15T08:21:52;102811.56;;;1.01;100.00
71666;BME280;59503;53.486;10.196;2023-02-15T08:24:20;102818.06;;;1.05;100.00
71666;BME280;59503;53.486;10.196;2023-02-15T08:26:47;102811.06;;;1.04;100.00
71666;BME280;59503;53.486;10.196;2023-02-15T08:29:14;102815.19;;;1.12;100.00
71666;BME280;59503;53.486;10.196;2023-02-15T08:31:41;102797.00;;;1.14;100.00
71666;BME280;59503;53.486;10.196;2023-02-15T08:34:09;102801.41;;;1.03;100.00
71666;BME280;59503;53.486;10.196;2023-02-15T08:36:36;102805.22;;;1.07;100.00
71666;BME280;59503;53.486;10.196;2023-02-15T08:39:04;102805.84;;;1.14;100.00
71666;BME280;59503;53.486;10.196;2023-02-15T08:41:32;102808.03;;;1.17;100.00
71666;BME280;59503;53.486;10.196;2023-02-15T08:44:01;102808.63;;;1.24;100.00
71666;BME280;59503;53.486;10.196;2023-02-15T08:46:29;102796.19;;;1.13;100.00
71666;BME280;59503;53.486;10.196;2023-02-15T08:48:55;102804.53;;;1.39;100.00
71666;BME280;59503;53.486;10.196;2023-02-15T08:51:25;102799.13;;;1.34;100.00
71666;BME280;59503;53.486;10.196;2023-02-15T08:53:55;102796.44;;;1.34;100.00
71666;BME280;59503;53.486;10.196;2023-02-15T08:56:26;102789.41;;;1.27;100.00
71666;BME280;59503;53.486;10.196;2023-02-15T08:58:55;102789.78;;;1.36;100.00
71666;BME280;59503;53.486;10.196;2023-02-15T09:01:24;102785.53;;;1.40;100.00
71666;BME280;59503;53.486;10.196;2023-02-15T09:03:54;102785.16;;;1.32;100.00
71666;BME280;59503;53.486;10.196;2023-02-15T09:06:21;102788.53;;;1.22;100.00
71666;BME280;59503;53.486;10.196;2023-02-15T09:08:47;102789.09;;;1.24;100.00
71666;BME280;59503;53.486;10.196;2023-02-15T09:11:14;102787.78;;;1.26;100.00
71666;BME280;59503;53.486;10.196;2023-02-15T09:13:42;102780.38;;;1.34;100.00
71666;BME280;59503;53.486;10.196;2023-02-15T09:16:08;102783.31;;;1.32;100.00
71666;BME280;59503;53.486;10.196;2023-02-15T09:18:36;102780.44;;;1.39;100.00
71666;BME280;59503;53.486;10.196;2023-02-15T09:21:22;102781.00;;;1.41;100.00
71666;BME280;59503;53.486;10.196;2023-02-15T09:23:52;102783.84;;;1.56;100.00
71666;BME280;59503;53.486;10.196;2023-02-15T09:26:22;102788.50;;;1.65;100.00
71666;BME280;59503;53.486;10.196;2023-02-15T09:28:52;102786.53;;;1.56;100.00
71666;BME280;59503;53.486;10.196;2023-02-15T09:31:20;102790.66;;;1.68;100.00
71666;BME280;59503;53.486;10.196;2023-02-15T09:33:47;102786.69;;;1.71;100.00
71666;BME280;59503;53.486;10.196;2023-02-15T09:36:21;102784.66;;;1.83;100.00
71666;BME280;59503;53.486;10.196;2023-02-15T09:38:52;102786.84;;;1.86;100.00
71666;BME280;59503;53.486;10.196;2023-02-15T09:58:24;102762.88;;;2.06;100.00
71666;BME280;59503;53.486;10.196;2023-02-15T10:09:45;102776.31;;;2.42;100.00
71666;BME280;59503;53.486;10.196;2023-02-15T10:12:21;102779.25;;;2.41;100.00
71666;BME280;59503;53.486;10.196;2023-02-15T10:14:55;102778.44;;;2.40;100.00
71666;BME280;59503;53.486;10.196;2023-02-15T10:20:39;102783.63;;;2.52;100.00
71666;BME280;59503;53.486;10.196;2023-02-15T10:26:20;102785.28;;;2.58;100.00
71666;BME280;59503;53.486;10.196;2023-02-15T10:29:07;102778.56;;;2.55;100.00
71666;BME280;59503;53.486;10.196;2023-02-15T10:31:46;102782.34;;;2.60;100.00
71666;BME280;59503;53.486;10.196;2023-02-15T10:36:57;102782.53;;;2.48;100.00
71666;BME280;59503;53.486;10.196;2023-02-15T10:52:46;102763.81;;;3.05;100.00
71666;BME280;59503;53.486;10.196;2023-02-15T11:00:43;102761.97;;;3.15;100.00
71666;BME280;59503;53.486;10.196;2023-02-15T11:03:48;102756.38;;;3.32;100.00
71666;BME280;59503;53.486;10.196;2023-02-15T11:06:17;102762.09;;;3.50;100.00
71666;BME280;59503;53.486;10.196;2023-02-15T11:08:54;102758.34;;;3.56;100.00
71666;BME280;59503;53.486;10.196;2023-02-15T11:11:25;102758.31;;;3.51;100.00
71666;BME280;59503;53.486;10.196;2023-02-15T11:13:57;102749.16;;;3.32;100.00
71666;BME280;59503;53.486;10.196;2023-02-15T11:16:28;102752.38;;;3.39;100.00
71666;BME280;59503;53.486;10.196;2023-02-15T11:19:06;102757.00;;;3.49;100.00
71666;BME280;59503;53.486;10.196;2023-02-15T11:21:42;102754.59;;;3.62;100.00
71666;BME280;59503;53.486;10.196;2023-02-15T11:24:13;102746.28;;;3.74;100.00
71666;BME280;59503;53.486;10.196;2023-02-15T11:26:43;102739.81;;;3.80;100.00
71666;BME280;59503;53.486;10.196;2023-02-15T11:31:57;102731.75;;;4.00;100.00
71666;BME280;59503;53.486;10.196;2023-02-15T11:34:32;102732.03;;;4.14;100.00
71666;BME280;59503;53.486;10.196;2023-02-15T11:37:24;102720.22;;;4.15;100.00
71666;BME280;59503;53.486;10.196;2023-02-15T11:39:52;102717.50;;;4.20;100.00
71666;BME280;59503;53.486;10.196;2023-02-15T11:42:21;102711.03;;;4.11;100.00
71666;BME280;59503;53.486;10.196;2023-02-15T11:45:02;102712.66;;;4.17;100.00
71666;BME280;59503;53.486;10.196;2023-02-15T11:47:29;102706.75;;;4.25;100.00
71666;BME280;59503;53.486;10.196;2023-02-15T11:49:55;102698.13;;;4.28;100.00
71666;BME280;59503;53.486;10.196;2023-02-15T11:52:20;102703.25;;;4.19;100.00
71666;BME280;59503;53.486;10.196;2023-02-15T11:54:48;102694.34;;;4.29;100.00
71666;BME280;59503;53.486;10.196;2023-02-15T11:59:52;102693.50;;;4.48;100.00
71666;BME280;59503;53.486;10.196;2023-02-15T12:02:22;102691.06;;;4.57;100.00
71666;BME280;59503;53.486;10.196;2023-02-15T12:04:54;102688.28;;;4.82;100.00
71666;BME280;59503;53.486;10.196;2023-02-15T12:07:37;102691.97;;;4.96;100.00
71666;BME280;59503;53.486;10.196;2023-02-15T12:10:27;102681.72;;;5.03;100.00
71666;BME280;59503;53.486;10.196;2023-02-15T12:13:10;102683.72;;;5.26;100.00
71666;BME280;59503;53.486;10.196;2023-02-15T12:15:36;102677.94;;;5.48;100.00
71666;BME280;59503;53.486;10.196;2023-02-15T12:18:03;102666.03;;;5.54;100.00
71666;BME280;59503;53.486;10.196;2023-02-15T12:20:32;102661.34;;;5.69;100.00
71666;BME280;59503;53.486;10.196;2023-02-15T12:23:03;102666.88;;;5.49;100.00
71666;BME280;59503;53.486;10.196;2023-02-15T12:25:36;102653.78;;;5.66;100.00
71666;BME280;59503;53.486;10.196;2023-02-15T12:28:34;102657.06;;;5.63;100.00
71666;BME280;59503;53.486;10.196;2023-02-15T12:31:03;102659.25;;;5.56;100.00
71666;BME280;59503;53.486;10.196;2023-02-15T12:33:41;102653.69;;;5.43;100.00
71666;BME280;59503;53.486;10.196;2023-02-15T12:36:33;102657.09;;;5.58;100.00
71666;BME280;59503;53.486;10.196;2023-02-15T12:41:43;102660.91;;;5.57;100.00
71666;BME280;59503;53.486;10.196;2023-02-15T12:44:18;102645.41;;;5.34;100.00
71666;BME280;59503;53.486;10.196;2023-02-15T12:49:24;102650.06;;;5.62;100.00
71666;BME280;59503;53.486;10.196;2023-02-15T12:51:50;102639.28;;;5.62;100.00
71666;BME280;59503;53.486;10.196;2023-02-15T12:59:54;102617.66;;;5.67;100.00
71666;BME280;59503;53.486;10.196;2023-02-15T13:08:04;102612.25;;;5.67;100.00
71666;BME280;59503;53.486;10.196;2023-02-15T13:10:39;102615.81;;;5.63;100.00
71666;BME280;59503;53.486;10.196;2023-02-15T13:13:10;102619.72;;;5.42;100.00
71666;BME280;59503;53.486;10.196;2023-02-15T13:15:39;102627.72;;;5.18;100.00
71666;BME280;59503;53.486;10.196;2023-02-15T13:18:13;102617.50;;;5.15;100.00
71666;BME280;59503;53.486;10.196;2023-02-15T13:20:41;102604.88;;;5.11;100.00
71666;BME280;59503;53.486;10.196;2023-02-15T13:23:24;102609.34;;;5.25;100.00
71666;BME280;59503;53.486;10.196;2023-02-15T13:25:54;102608.66;;;5.43;100.00
71666;BME280;59503;53.486;10.196;2023-02-15T13:28:24;102606.75;;;5.77;100.00
71666;BME280;59503;53.486;10.196;2023-02-15T13:30:52;102597.34;;;5.75;100.00
71666;BME280;59503;53.486;10.196;2023-02-15T13:33:33;102594.84;;;5.83;100.00
71666;BME280;59503;53.486;10.196;2023-02-15T13:47:39;102591.28;;;6.16;100.00
71666;BME280;59503;53.486;10.196;2023-02-15T13:55:52;102572.69;;;5.86;100.00
71666;BME280;59503;53.486;10.196;2023-02-15T14:01:28;102577.38;;;5.76;100.00
71666;BME280;59503;53.486;10.196;2023-02-15T14:15:25;102556.94;;;5.36;100.00
71666;BME280;59503;53.486;10.196;2023-02-15T14:25:47;102545.53;;;5.49;100.00
71666;BME280;59503;53.486;10.196;2023-02-15T14:28:34;102548.91;;;5.60;100.00
71666;BME280;59503;53.486;10.196;2023-02-15T14:31:04;102543.81;;;5.58;100.00
71666;BME280;59503;53.486;10.196;2023-02-15T14:33:40;102538.31;;;5.68;100.00
71666;BME280;59503;53.486;10.196;2023-02-15T14:36:11;102540.19;;;5.96;100.00
71666;BME280;59503;53.486;10.196;2023-02-15T14:42:05;102531.34;;;6.38;100.00
71666;BME280;59503;53.486;10.196;2023-02-15T14:44:38;102529.72;;;6.37;100.00
71666;BME280;59503;53.486;10.196;2023-02-15T14:47:18;102536.31;;;6.31;100.00
71666;BME280;59503;53.486;10.196;2023-02-15T14:49:48;102534.97;;;6.28;100.00
71666;BME280;59503;53.486;10.196;2023-02-15T14:52:13;102538.94;;;6.12;100.00
71666;BME280;59503;53.486;10.196;2023-02-15T14:59:58;102531.31;;;5.67;100.00
71666;BME280;59503;53.486;10.196;2023-02-15T15:02:49;102537.72;;;5.71;100.00
71666;BME280;59503;53.486;10.196;2023-02-15T15:05:33;102527.03;;;5.61;100.00
71666;BME280;59503;53.486;10.196;2023-02-15T15:08:01;102538.97;;;5.55;100.00
71666;BME280;59503;53.486;10.196;2023-02-15T15:15:56;102531.66;;;5.32;100.00
71666;BME280;59503;53.486;10.196;2023-02-15T15:18:45;102529.00;;;5.27;100.00
71666;BME280;59503;53.486;10.196;2023-02-15T15:21:10;102527.91;;;5.28;100.00
71666;BME280;59503;53.486;10.196;2023-02-15T15:26:31;102527.66;;;5.25;100.00
71666;BME280;59503;53.486;10.196;2023-02-15T15:29:02;102530.63;;;5.23;100.00
71666;BME280;59503;53.486;10.196;2023-02-15T15:31:39;102525.81;;;5.20;100.00
71666;BME280;59503;53.486;10.196;2023-02-15T15:48:35;102531.34;;;5.00;100.00
71666;BME280;59503;53.486;10.196;2023-02-15T15:51:30;102521.69;;;4.94;100.00
71666;BME280;59503;53.486;10.196;2023-02-15T15:53:56;102522.28;;;4.86;100.00
71666;BME280;59503;53.486;10.196;2023-02-15T15:56:26;102523.94;;;4.82;100.00
71666;BME280;59503;53.486;10.196;2023-02-15T15:59:02;102516.44;;;4.74;100.00
71666;BME280;59503;53.486;10.196;2023-02-15T16:01:34;102514.34;;;4.66;100.00
71666;BME280;59503;53.486;10.196;2023-02-15T16:04:01;102508.72;;;4.57;100.00
71666;BME280;59503;53.486;10.196;2023-02-15T16:06:36;102509.88;;;4.46;100.00
71666;BME280;59503;53.486;10.196;2023-02-15T16:09:17;102509.13;;;4.36;100.00
71666;BME280;59503;53.486;10.196;2023-02-15T16:11:44;102512.94;;;4.25;100.00
71666;BME280;59503;53.486;10.196;2023-02-15T16:14:17;102507.34;;;4.16;100.00
71666;BME280;59503;53.486;10.196;2023-02-15T16:16:52;102510.81;;;4.12;100.00
71666;BME280;59503;53.486;10.196;2023-02-15T16:19:20;102501.16;;;4.11;100.00
71666;BME280;59503;53.486;10.196;2023-02-15T16:21:48;102502.00;;;4.06;100.00
71666;BME280;59503;53.486;10.196;2023-02-15T16:24:38;102505.25;;;4.03;100.00
71666;BME280;59503;53.486;10.196;2023-02-15T16:29:47;102495.25;;;4.04;100.00
71666;BME280;59503;53.486;10.196;2023-02-15T16:32:17;102498.22;;;4.02;100.00
71666;BME280;59503;53.486;10.196;2023-02-15T16:35:00;102499.31;;;4.01;100.00
71666;BME280;59503;53.486;10.196;2023-02-15T16:37:32;102500.13;;;3.97;100.00
71666;BME280;59503;53.486;10.196;2023-02-15T16:39:58;102492.88;;;3.92;100.00
71666;BME280;59503;53.486;10.196;2023-02-15T16:42:24;102491.84;;;3.88;100.00
71666;BME280;59503;53.486;10.196;2023-02-15T16:45:12;102487.78;;;3.86;100.00
71666;BME280;59503;53.486;10.196;2023-02-15T16:47:46;102484.56;;;3.83;100.00
71666;BME280;59503;53.486;10.196;2023-02-15T16:50:23;102483.53;;;3.79;100.00
71666;BME280;59503;53.486;10.196;2023-02-15T16:52:49;102488.91;;;3.79;100.00
71666;BME280;59503;53.486;10.196;2023-02-15T16:55:26;102480.84;;;3.79;100.00
71666;BME280;59503;53.486;10.196;2023-02-15T16:58:01;102478.94;;;3.75;100.00
71666;BME280;59503;53.486;10.196;2023-02-15T17:00:32;102475.72;;;3.68;100.00
71666;BME280;59503;53.486;10.196;2023-02-15T17:05:42;102476.59;;;3.53;100.00
71666;BME280;59503;53.486;10.196;2023-02-15T17:13:35;102452.69;;;3.42;100.00